Time;durP1;ratioP1;P1;durP2;ratioP2;P2;SDS_P1;SDS_P2;PMS_P1;PMS_P2;Temp;Humidity;BMP_temperature;BMP_pressure;BME280_temperature;BME280_humidity;BME280_pressure;Samples;Min_cycle;Max_cycle;Signal;HPM_P1;HPM_P2
2022/02/18 00:02:24;;;;;;;8.45;2.33;;;7.80;88.20;;;;;;5047826;28;20064;-64
2022/02/18 00:04:49;;;;;;;8.13;2.00;;;7.80;88.40;;;;;;5040365;28;20420;-65
2022/02/18 00:07:15;;;;;;;7.55;2.28;;;7.80;88.10;;;;;;5043185;28;20040;-63
2022/02/18 00:09:40;;;;;;;10.93;3.30;;;7.80;88.10;;;;;;5035458;28;20037;-65
2022/02/18 00:12:07;;;;;;;6.18;2.42;;;7.80;87.90;;;;;;5048816;28;20036;-64
2022/02/18 00:14:33;;;;;;;13.95;1.90;;;7.80;88.00;;;;;;5045177;28;20044;-65
2022/02/18 00:16:58;;;;;;;8.50;2.25;;;7.80;88.00;;;;;;5035048;28;20033;-65
2022/02/18 00:19:24;;;;;;;4.22;1.70;;;7.80;87.80;;;;;;5034214;28;20029;-65
2022/02/18 00:21:49;;;;;;;11.93;2.10;;;7.80;87.80;;;;;;5045718;28;20048;-65
2022/02/18 00:24:16;;;;;;;7.95;3.05;;;7.80;87.80;;;;;;5043316;28;20025;-64
2022/02/18 00:26:42;;;;;;;7.65;2.28;;;7.80;87.60;;;;;;5042517;28;20029;-65
2022/02/18 00:29:08;;;;;;;8.15;1.80;;;7.80;87.90;;;;;;5032817;28;20469;-64
2022/02/18 00:31:33;;;;;;;8.88;2.85;;;7.80;87.70;;;;;;5043450;28;20107;-65
2022/02/18 00:33:59;;;;;;;7.78;2.20;;;7.80;87.70;;;;;;5033865;28;20036;-64
2022/02/18 00:36:24;;;;;;;9.07;2.38;;;7.80;87.70;;;;;;5043797;28;20032;-65
2022/02/18 00:38:50;;;;;;;6.88;1.88;;;7.80;87.70;;;;;;5053640;28;20074;-64
2022/02/18 00:41:16;;;;;;;8.15;2.55;;;7.80;87.80;;;;;;5052150;28;20059;-64
2022/02/18 00:43:42;;;;;;;5.90;1.70;;;7.80;87.70;;;;;;5036008;28;20077;-64
2022/02/18 00:46:07;;;;;;;5.15;1.73;;;7.80;87.70;;;;;;5041496;28;20056;-63
2022/02/18 00:48:33;;;;;;;6.15;1.58;;;7.80;87.60;;;;;;5037330;28;20436;-64
2022/02/18 00:50:59;;;;;;;9.00;2.42;;;7.80;87.70;;;;;;5050457;28;20119;-64
2022/02/18 00:53:24;;;;;;;11.00;2.03;;;7.80;87.70;;;;;;5053467;28;20025;-64
2022/02/18 00:55:53;;;;;;;5.40;1.92;;;7.80;87.90;;;;;;5051379;28;20388;-64
2022/02/18 00:58:23;;;;;;;11.95;2.70;;;7.70;87.90;;;;;;5049706;28;20032;-64
2022/02/18 01:00:49;;;;;;;7.03;2.35;;;7.70;87.90;;;;;;5063027;28;20126;-64
2022/02/18 01:03:15;;;;;;;7.32;2.00;;;7.70;88.00;;;;;;5041303;28;20109;-65
2022/02/18 01:05:40;;;;;;;11.75;2.20;;;7.70;88.20;;;;;;5036676;28;20115;-65
2022/02/18 01:08:06;;;;;;;7.38;1.75;;;7.70;88.40;;;;;;5043083;28;20061;-64
2022/02/18 01:10:31;;;;;;;10.50;2.63;;;7.80;88.40;;;;;;5035382;28;20476;-64
2022/02/18 01:12:57;;;;;;;7.85;2.20;;;7.70;88.30;;;;;;5043912;28;20496;-64
2022/02/18 01:15:23;;;;;;;4.82;1.52;;;7.70;88.40;;;;;;5032839;28;20087;-64
2022/02/18 01:17:48;;;;;;;8.68;1.98;;;7.70;88.50;;;;;;5053217;28;20018;-64
2022/02/18 01:20:14;;;;;;;5.95;1.98;;;7.70;88.60;;;;;;5035116;28;20029;-64
2022/02/18 01:22:39;;;;;;;12.18;2.38;;;7.70;88.60;;;;;;5033862;28;20029;-64
2022/02/18 01:25:06;;;;;;;5.65;1.92;;;7.80;88.60;;;;;;5032891;28;20554;-65
2022/02/18 01:27:32;;;;;;;10.00;2.13;;;7.70;88.70;;;;;;5034941;28;20040;-64
2022/02/18 01:29:57;;;;;;;6.13;1.70;;;7.70;88.70;;;;;;5015637;28;20029;-64
2022/02/18 01:32:23;;;;;;;5.10;1.95;;;7.70;88.60;;;;;;5049504;28;20041;-64
2022/02/18 01:34:48;;;;;;;9.25;2.00;;;7.70;88.70;;;;;;5047918;28;20039;-64
2022/02/18 01:37:14;;;;;;;8.27;2.05;;;7.70;88.80;;;;;;5050312;28;20438;-64
2022/02/18 01:39:39;;;;;;;7.40;1.73;;;7.70;88.60;;;;;;5041737;28;20025;-64
2022/02/18 01:42:05;;;;;;;11.80;2.72;;;7.70;88.60;;;;;;5048204;28;20036;-64
2022/02/18 01:44:51;;;;;;;6.25;1.60;;;7.70;88.60;;;;;;5043980;28;20033;-64
2022/02/18 01:47:19;;;;;;;3.70;1.58;;;7.70;88.50;;;;;;5049259;28;20070;-64
2022/02/18 01:49:46;;;;;;;7.30;1.98;;;7.60;88.50;;;;;;5042032;28;20044;-64
2022/02/18 01:52:13;;;;;;;9.63;3.10;;;7.70;88.50;;;;;;5033252;28;20103;-64
2022/02/18 01:54:39;;;;;;;6.22;1.52;;;7.60;88.40;;;;;;5032832;28;20029;-64
2022/02/18 01:57:04;;;;;;;7.35;1.38;;;7.60;88.60;;;;;;5033252;28;20038;-64
2022/02/18 01:59:30;;;;;;;12.18;2.67;;;7.70;88.30;;;;;;5033794;28;20496;-64
2022/02/18 02:01:58;;;;;;;7.18;2.15;;;7.70;88.30;;;;;;5046481;28;20053;-64
2022/02/18 02:04:27;;;;;;;6.32;2.15;;;7.70;88.40;;;;;;5032591;28;20099;-65
2022/02/18 02:06:55;;;;;;;6.82;1.40;;;7.70;88.20;;;;;;5036576;28;20117;-64
2022/02/18 02:09:21;;;;;;;4.97;1.42;;;7.60;88.20;;;;;;5051836;28;20051;-64
2022/02/18 02:11:47;;;;;;;8.15;2.03;;;7.60;88.30;;;;;;5050361;28;20040;-64
2022/02/18 02:14:12;;;;;;;6.70;1.98;;;7.70;88.30;;;;;;5044202;28;20034;-64
2022/02/18 02:16:40;;;;;;;5.95;2.53;;;7.70;88.30;;;;;;5044121;28;20029;-64
2022/02/18 02:19:06;;;;;;;6.22;1.50;;;7.60;88.20;;;;;;5049768;28;20533;-64
2022/02/18 02:21:31;;;;;;;10.98;2.10;;;7.60;88.20;;;;;;5037447;28;20029;-64
2022/02/18 02:23:58;;;;;;;4.88;1.60;;;7.70;88.30;;;;;;5032266;28;20051;-64
2022/02/18 02:26:24;;;;;;;7.18;2.00;;;7.60;88.10;;;;;;5039525;28;20060;-64
2022/02/18 02:28:50;;;;;;;8.98;2.05;;;7.60;88.10;;;;;;5033176;28;20578;-64
2022/02/18 02:31:15;;;;;;;7.53;2.08;;;7.60;88.30;;;;;;5040265;28;20531;-64
2022/02/18 02:33:41;;;;;;;10.07;2.50;;;7.60;88.40;;;;;;5040258;28;20037;-64
2022/02/18 02:36:06;;;;;;;8.40;1.88;;;7.60;88.50;;;;;;5032434;28;20018;-64
2022/02/18 02:38:32;;;;;;;5.05;2.08;;;7.60;88.50;;;;;;5034604;28;20025;-64
2022/02/18 02:40:57;;;;;;;9.48;1.70;;;7.60;88.50;;;;;;5051747;28;20040;-64
2022/02/18 02:43:23;;;;;;;9.85;2.38;;;7.60;88.60;;;;;;5049102;28;21610;-64
2022/02/18 02:45:48;;;;;;;7.15;1.95;;;7.60;88.60;;;;;;5047457;28;20017;-64
2022/02/18 02:48:14;;;;;;;8.15;1.67;;;7.50;88.60;;;;;;5031750;28;20029;-64
2022/02/18 02:50:40;;;;;;;6.28;2.30;;;7.50;88.60;;;;;;5048425;28;20053;-64
2022/02/18 02:53:06;;;;;;;6.03;1.80;;;7.50;88.70;;;;;;5031153;28;20499;-64
2022/02/18 02:55:31;;;;;;;8.23;2.00;;;7.50;88.70;;;;;;5050687;28;20420;-64
2022/02/18 02:57:57;;;;;;;6.20;1.95;;;7.50;88.80;;;;;;5035756;28;20060;-64
2022/02/18 03:00:22;;;;;;;9.40;1.95;;;7.50;88.80;;;;;;5060765;28;20025;-64
2022/02/18 03:02:48;;;;;;;9.23;2.22;;;7.50;88.90;;;;;;5050728;28;20024;-64
2022/02/18 03:05:14;;;;;;;11.70;2.65;;;7.50;89.00;;;;;;5049103;28;20044;-64
2022/02/18 03:07:40;;;;;;;8.50;2.45;;;7.40;89.00;;;;;;5033545;28;20486;-64
2022/02/18 03:10:07;;;;;;;9.57;1.77;;;7.50;89.10;;;;;;5035168;28;20060;-64
2022/02/18 03:12:33;;;;;;;12.15;3.33;;;7.50;89.20;;;;;;5030909;28;20084;-64
2022/02/18 03:14:59;;;;;;;4.70;2.33;;;7.50;89.30;;;;;;5032801;28;20036;-64
2022/02/18 03:17:25;;;;;;;8.57;2.03;;;7.50;89.30;;;;;;5031273;28;20025;-64
2022/02/18 03:19:51;;;;;;;11.52;2.42;;;7.50;89.30;;;;;;5032213;28;20040;-64
2022/02/18 03:22:17;;;;;;;6.43;2.08;;;7.50;89.40;;;;;;5031729;28;20033;-64
2022/02/18 03:24:43;;;;;;;10.18;1.95;;;7.50;89.50;;;;;;5043561;28;20488;-64
2022/02/18 03:27:08;;;;;;;10.48;2.47;;;7.50;89.60;;;;;;5044375;28;20118;-64
2022/02/18 03:29:34;;;;;;;10.18;2.17;;;7.40;89.50;;;;;;5031622;28;20488;-64
2022/02/18 03:32:00;;;;;;;5.35;1.70;;;7.40;89.60;;;;;;5031029;28;20026;-64
2022/02/18 03:34:26;;;;;;;10.45;1.98;;;7.40;89.70;;;;;;5035983;28;20417;-64
2022/02/18 03:36:51;;;;;;;6.97;1.80;;;7.40;89.70;;;;;;5051149;28;20104;-64
2022/02/18 03:39:17;;;;;;;16.42;3.65;;;7.40;89.70;;;;;;5042489;28;20103;-64
2022/02/18 03:41:42;;;;;;;4.32;1.83;;;7.40;89.80;;;;;;5035268;28;20044;-64
2022/02/18 03:44:08;;;;;;;20.05;4.25;;;7.50;89.90;;;;;;5042205;28;20033;-64
2022/02/18 03:46:34;;;;;;;5.82;1.77;;;7.40;89.80;;;;;;5035008;28;20041;-64
2022/02/18 03:49:00;;;;;;;4.90;1.55;;;7.40;89.80;;;;;;5041473;28;20049;-64
2022/02/18 03:51:25;;;;;;;10.95;2.88;;;7.40;89.90;;;;;;5035253;28;20088;-64
2022/02/18 03:53:51;;;;;;;4.38;1.65;;;7.40;90.00;;;;;;5052660;28;20476;-64
2022/02/18 03:56:17;;;;;;;9.07;2.20;;;7.40;90.00;;;;;;5038423;28;20057;-64
2022/02/18 03:58:43;;;;;;;9.15;1.95;;;7.40;90.00;;;;;;5037158;28;20030;-64
2022/02/18 04:01:08;;;;;;;5.63;2.13;;;7.40;90.10;;;;;;5054478;28;20110;-64
2022/02/18 04:03:35;;;;;;;7.65;2.45;;;7.40;90.10;;;;;;5030741;28;20041;-63
2022/02/18 04:06:00;;;;;;;8.77;1.83;;;7.40;90.20;;;;;;5054661;28;20558;-63
2022/02/18 04:08:25;;;;;;;7.15;1.77;;;7.40;90.20;;;;;;5043625;28;20029;-64
2022/02/18 04:10:51;;;;;;;9.90;2.45;;;7.30;90.20;;;;;;5054407;28;20036;-64
2022/02/18 04:13:16;;;;;;;6.57;2.83;;;7.40;90.30;;;;;;5052749;28;20376;-64
2022/02/18 04:15:42;;;;;;;5.90;2.20;;;7.30;90.30;;;;;;5038115;28;20107;-64
2022/02/18 04:18:08;;;;;;;8.40;1.90;;;7.30;90.30;;;;;;5052519;28;20028;-64
2022/02/18 04:20:33;;;;;;;6.25;1.63;;;7.30;90.40;;;;;;5043683;28;20537;-64
2022/02/18 04:22:59;;;;;;;9.45;2.58;;;7.40;90.40;;;;;;5054344;28;20032;-64
2022/02/18 04:25:24;;;;;;;7.50;2.53;;;7.30;90.40;;;;;;5034984;28;20023;-64
2022/02/18 04:27:54;;;;;;;7.15;2.00;;;7.30;90.40;;;;;;5034253;28;20445;-64
2022/02/18 04:30:21;;;;;;;12.07;2.72;;;7.30;90.50;;;;;;5046584;28;20029;-64
2022/02/18 04:32:47;;;;;;;4.63;1.80;;;7.30;90.50;;;;;;5041807;28;20056;-64
2022/02/18 04:35:13;;;;;;;5.65;1.73;;;7.30;90.60;;;;;;5034723;28;20056;-64
2022/02/18 04:37:39;;;;;;;9.23;2.42;;;7.30;90.60;;;;;;5049327;28;20028;-64
2022/02/18 04:40:05;;;;;;;7.38;2.00;;;7.30;90.60;;;;;;5037659;28;20033;-64
2022/02/18 04:42:31;;;;;;;4.88;1.70;;;7.30;90.70;;;;;;5034097;28;20430;-64
2022/02/18 04:44:56;;;;;;;4.72;2.03;;;7.30;90.70;;;;;;5033982;28;20040;-64
2022/02/18 04:47:22;;;;;;;8.95;1.88;;;7.30;90.70;;;;;;5034412;28;20021;-64
2022/02/18 04:49:47;;;;;;;8.50;1.55;;;7.30;90.80;;;;;;5033243;28;20033;-64
2022/02/18 04:52:14;;;;;;;6.72;1.70;;;7.30;90.80;;;;;;5034060;28;20033;-64
2022/02/18 04:54:39;;;;;;;6.88;1.83;;;7.20;90.80;;;;;;5034841;28;20038;-64
2022/02/18 04:57:05;;;;;;;7.45;1.85;;;7.20;90.90;;;;;;5034111;28;20389;-64
2022/02/18 04:59:30;;;;;;;6.05;1.90;;;7.20;91.00;;;;;;5043518;28;20113;-64
2022/02/18 05:01:56;;;;;;;12.98;2.80;;;7.20;91.10;;;;;;5051291;28;20568;-64
2022/02/18 05:04:21;;;;;;;7.30;1.77;;;7.20;91.20;;;;;;5052457;28;20037;-64
2022/02/18 05:06:46;;;;;;;5.50;2.13;;;7.20;91.20;;;;;;5053360;28;20733;-64
2022/02/18 05:09:12;;;;;;;10.48;2.28;;;7.20;91.30;;;;;;5051583;28;20040;-64
2022/02/18 05:11:37;;;;;;;6.88;1.95;;;7.20;91.30;;;;;;5033874;28;20049;-64
2022/02/18 05:14:03;;;;;;;9.73;2.17;;;7.20;91.30;;;;;;5045963;28;20408;-64
2022/02/18 05:16:28;;;;;;;6.05;1.90;;;7.20;91.30;;;;;;5036160;28;20030;-64
2022/02/18 05:18:55;;;;;;;4.38;1.80;;;7.20;91.40;;;;;;5040133;28;20106;-64
2022/02/18 05:21:22;;;;;;;9.35;2.00;;;7.20;91.50;;;;;;5037482;28;20105;-64
2022/02/18 05:23:47;;;;;;;5.75;1.88;;;7.20;91.50;;;;;;5038072;28;20044;-64
2022/02/18 05:26:13;;;;;;;4.50;1.90;;;7.10;91.50;;;;;;5035119;28;20403;-64
2022/02/18 05:28:39;;;;;;;6.70;2.08;;;7.10;91.60;;;;;;5044718;28;20025;-63
2022/02/18 05:31:04;;;;;;;7.90;2.28;;;7.10;91.70;;;;;;5033416;28;20036;-64
2022/02/18 05:33:30;;;;;;;7.68;2.13;;;7.10;91.90;;;;;;5035096;28;20022;-64
2022/02/18 05:35:55;;;;;;;10.07;4.13;;;7.10;91.80;;;;;;5052670;28;20025;-63
2022/02/18 05:38:21;;;;;;;8.20;1.92;;;7.10;91.90;;;;;;5048476;28;20033;-63
2022/02/18 05:40:46;;;;;;;8.25;2.00;;;7.10;91.90;;;;;;5052408;28;20365;-62
2022/02/18 05:43:12;;;;;;;10.63;2.30;;;7.10;92.00;;;;;;5041858;28;20083;-63
2022/02/18 05:45:38;;;;;;;9.40;2.00;;;7.10;92.00;;;;;;5052348;28;20047;-62
2022/02/18 05:48:04;;;;;;;6.97;2.22;;;7.10;92.10;;;;;;5042396;28;20025;-63
2022/02/18 05:50:29;;;;;;;7.25;2.13;;;7.10;92.20;;;;;;5050646;28;20037;-63
2022/02/18 05:52:55;;;;;;;8.80;2.50;;;7.10;92.20;;;;;;5045470;28;20041;-62
2022/02/18 05:55:21;;;;;;;9.30;3.03;;;7.10;92.20;;;;;;5031860;28;20030;-62
2022/02/18 05:57:46;;;;;;;7.22;2.53;;;7.20;92.30;;;;;;5032431;28;20079;-62
2022/02/18 06:00:12;;;;;;;8.88;3.20;;;7.20;92.30;;;;;;5048147;28;20032;-62
2022/02/18 06:02:39;;;;;;;9.30;2.65;;;7.20;92.30;;;;;;5051257;28;20033;-62
2022/02/18 06:05:05;;;;;;;8.20;2.28;;;7.20;92.30;;;;;;5050047;28;20100;-62
2022/02/18 06:07:30;;;;;;;9.07;2.45;;;7.30;92.30;;;;;;5034771;28;20488;-62
2022/02/18 06:09:55;;;;;;;11.23;2.38;;;7.20;92.40;;;;;;5045700;28;20085;-62
2022/02/18 06:12:21;;;;;;;8.50;2.45;;;7.20;92.40;;;;;;5048743;28;20029;-63
2022/02/18 06:14:50;;;;;;;10.15;2.95;;;7.30;92.40;;;;;;5048258;28;20041;-63
2022/02/18 06:17:16;;;;;;;6.38;3.08;;;7.30;92.40;;;;;;5036686;28;20029;-63
2022/02/18 06:19:42;;;;;;;11.73;2.70;;;7.30;92.40;;;;;;5043470;28;20069;-63
2022/02/18 06:22:07;;;;;;;8.05;2.38;;;7.30;92.50;;;;;;5024523;28;20638;-63
2022/02/18 06:24:33;;;;;;;7.22;2.58;;;7.30;92.50;;;;;;5041940;28;20399;-64
2022/02/18 06:26:58;;;;;;;6.07;2.75;;;7.30;92.50;;;;;;5022581;28;20022;-63
2022/02/18 06:29:24;;;;;;;8.80;2.65;;;7.30;92.50;;;;;;5035657;28;20110;-63
2022/02/18 06:31:49;;;;;;;6.35;2.20;;;7.40;92.60;;;;;;5031953;28;20022;-63
2022/02/18 06:34:15;;;;;;;13.13;2.67;;;7.40;92.60;;;;;;5014286;28;20030;-63
2022/02/18 06:36:40;;;;;;;7.30;2.42;;;7.40;92.60;;;;;;5031864;28;20021;-63
2022/02/18 06:39:06;;;;;;;9.77;2.28;;;7.40;92.70;;;;;;5049182;28;20035;-63
2022/02/18 06:41:31;;;;;;;8.48;2.50;;;7.50;92.70;;;;;;5045468;28;20025;-63
2022/02/18 06:43:57;;;;;;;6.93;2.30;;;7.50;92.70;;;;;;5037045;28;20033;-63
2022/02/18 06:46:23;;;;;;;8.77;2.38;;;7.40;92.60;;;;;;5040407;28;20121;-63
2022/02/18 06:48:49;;;;;;;7.35;2.70;;;7.50;92.70;;;;;;5039929;28;20483;-63
2022/02/18 06:51:14;;;;;;;6.75;2.25;;;7.50;92.70;;;;;;5047303;28;20104;-63
2022/02/18 06:53:40;;;;;;;10.45;2.20;;;7.50;92.70;;;;;;5061411;28;20433;-62
2022/02/18 06:56:06;;;;;;;7.60;2.33;;;7.50;92.70;;;;;;5042262;28;20117;-62
2022/02/18 06:58:32;;;;;;;8.68;2.80;;;7.50;92.70;;;;;;5027990;28;20476;-62
2022/02/18 07:00:57;;;;;;;7.18;2.47;;;7.50;92.70;;;;;;5037384;28;20045;-62
2022/02/18 07:03:23;;;;;;;9.38;2.88;;;7.50;92.80;;;;;;5040362;28;20048;-63
2022/02/18 07:05:49;;;;;;;7.30;2.58;;;7.50;92.80;;;;;;5047744;28;20035;-63
2022/02/18 07:08:15;;;;;;;8.43;3.97;;;7.50;92.90;;;;;;5035596;28;20032;-63
2022/02/18 07:10:41;;;;;;;10.35;2.92;;;7.50;92.90;;;;;;5036373;28;20036;-63
2022/02/18 07:13:07;;;;;;;7.82;3.22;;;7.50;93.00;;;;;;5041589;28;20091;-63
2022/02/18 07:15:33;;;;;;;6.75;2.53;;;7.60;93.00;;;;;;5044219;28;20484;-63
2022/02/18 07:18:00;;;;;;;8.98;3.10;;;7.60;93.00;;;;;;5034500;28;20299;-63
2022/02/18 07:20:26;;;;;;;9.40;3.30;;;7.60;93.10;;;;;;5047555;28;20369;-63
2022/02/18 07:22:52;;;;;;;8.05;3.13;;;7.60;93.10;;;;;;5048260;28;20032;-62
2022/02/18 07:25:19;;;;;;;7.15;2.90;;;7.70;93.20;;;;;;5035929;28;20121;-63
2022/02/18 07:27:45;;;;;;;9.77;3.40;;;7.70;93.20;;;;;;5037578;28;20039;-63
2022/02/18 07:30:14;;;;;;;10.32;3.38;;;7.70;93.20;;;;;;5047927;28;20032;-62
2022/02/18 07:32:41;;;;;;;9.73;4.18;;;7.70;93.20;;;;;;5049384;28;20377;-63
2022/02/18 07:35:07;;;;;;;8.65;3.50;;;7.80;93.20;;;;;;5040390;28;20033;-64
2022/02/18 07:37:33;;;;;;;9.52;3.75;;;7.80;93.20;;;;;;5032629;28;20455;-63
2022/02/18 07:39:59;;;;;;;11.75;3.90;;;7.80;93.20;;;;;;5034407;28;20056;-63
2022/02/18 07:42:24;;;;;;;6.43;3.75;;;7.80;93.20;;;;;;5049650;28;20504;-63
2022/02/18 07:44:50;;;;;;;8.43;3.75;;;7.90;93.20;;;;;;5046943;28;20495;-63
2022/02/18 07:47:16;;;;;;;13.65;4.38;;;7.90;93.30;;;;;;5049938;28;20491;-63
2022/02/18 07:49:43;;;;;;;13.98;4.65;;;7.90;93.30;;;;;;5047255;28;20037;-63
2022/02/18 07:52:09;;;;;;;10.73;3.83;;;8.00;93.40;;;;;;5047734;28;20408;-62
2022/02/18 07:54:35;;;;;;;13.73;4.45;;;8.00;93.40;;;;;;5036593;28;20030;-63
2022/02/18 07:57:00;;;;;;;12.13;4.00;;;8.00;93.40;;;;;;5045510;28;20033;-63
2022/02/18 07:59:26;;;;;;;9.13;3.85;;;8.00;93.40;;;;;;5037229;28;20022;-63
2022/02/18 08:01:51;;;;;;;10.00;3.97;;;8.10;93.50;;;;;;5044083;28;20135;-64
2022/02/18 08:04:17;;;;;;;11.90;4.03;;;8.10;93.50;;;;;;5047558;28;20036;-63
2022/02/18 08:06:42;;;;;;;11.02;4.72;;;8.20;93.50;;;;;;5049747;28;20025;-63
2022/02/18 08:09:08;;;;;;;8.00;4.82;;;8.20;93.40;;;;;;5045378;28;20119;-63
2022/02/18 08:11:33;;;;;;;13.60;4.68;;;8.30;93.40;;;;;;5047910;28;20029;-63
2022/02/18 08:13:59;;;;;;;8.63;4.53;;;8.30;93.50;;;;;;5047083;28;20548;-63
2022/02/18 08:16:27;;;;;;;9.02;3.90;;;8.40;93.60;;;;;;5049277;28;20029;-63
2022/02/18 08:18:54;;;;;;;9.35;3.83;;;8.50;93.60;;;;;;5044544;28;20078;-64
2022/02/18 08:21:19;;;;;;;8.90;3.88;;;8.50;93.50;;;;;;5049166;28;20029;-63
2022/02/18 08:23:45;;;;;;;9.60;4.32;;;8.60;93.40;;;;;;5047231;28;20101;-64
2022/02/18 08:26:11;;;;;;;13.38;3.97;;;8.70;93.40;;;;;;5040497;28;20506;-64
2022/02/18 08:28:36;;;;;;;14.25;4.35;;;8.80;93.40;;;;;;5050924;28;20025;-63
2022/02/18 08:31:02;;;;;;;9.68;4.22;;;8.80;93.40;;;;;;5052712;28;20496;-63
2022/02/18 08:33:27;;;;;;;10.05;5.20;;;8.90;93.30;;;;;;5050193;28;20061;-62
2022/02/18 08:35:54;;;;;;;9.90;4.30;;;9.00;93.50;;;;;;5052580;28;20067;-63
2022/02/18 08:38:19;;;;;;;16.30;4.85;;;9.00;93.20;;;;;;5042837;28;20025;-63
2022/02/18 08:40:45;;;;;;;7.03;3.58;;;9.10;93.10;;;;;;5052658;28;20013;-62
2022/02/18 08:43:10;;;;;;;7.32;3.53;;;9.20;93.00;;;;;;5051211;28;20419;-63
2022/02/18 08:45:36;;;;;;;8.77;3.65;;;9.20;93.00;;;;;;5049502;28;20029;-63
2022/02/18 08:48:02;;;;;;;8.40;3.28;;;9.20;92.90;;;;;;5033205;28;20025;-63
2022/02/18 08:50:27;;;;;;;9.63;3.83;;;9.30;92.80;;;;;;5033172;28;20131;-62
2022/02/18 08:52:53;;;;;;;7.65;2.80;;;9.30;92.70;;;;;;5052189;28;20040;-62
2022/02/18 08:55:21;;;;;;;7.72;3.08;;;9.40;92.70;;;;;;5051208;28;20412;-63
2022/02/18 08:57:48;;;;;;;7.60;3.22;;;9.40;92.60;;;;;;5033380;28;20051;-63
2022/02/18 09:00:17;;;;;;;10.50;3.10;;;9.40;92.60;;;;;;5034262;28;20029;-62
2022/02/18 09:02:43;;;;;;;11.05;3.83;;;9.50;92.60;;;;;;5052699;28;20037;-62
2022/02/18 09:05:09;;;;;;;7.38;3.28;;;9.60;92.50;;;;;;5045815;28;20037;-61
2022/02/18 09:07:35;;;;;;;9.77;3.25;;;9.60;92.50;;;;;;5032824;28;20060;-61
2022/02/18 09:10:01;;;;;;;13.52;3.80;;;9.70;92.40;;;;;;5046685;28;20041;-63
2022/02/18 09:12:27;;;;;;;8.23;4.28;;;9.70;92.40;;;;;;5034477;28;20511;-62
2022/02/18 09:14:53;;;;;;;8.77;2.97;;;9.80;92.50;;;;;;5045949;28;20029;-61
2022/02/18 09:17:21;;;;;;;9.18;3.80;;;9.90;92.50;;;;;;5044215;28;20416;-62
2022/02/18 09:19:48;;;;;;;15.80;3.60;;;9.90;92.40;;;;;;5045979;28;20037;-62
2022/02/18 09:22:14;;;;;;;6.90;3.20;;;10.00;92.30;;;;;;5044954;28;20059;-62
2022/02/18 09:24:39;;;;;;;9.75;3.90;;;10.00;92.20;;;;;;5043282;28;20109;-62
2022/02/18 09:27:05;;;;;;;13.73;3.78;;;10.10;92.20;;;;;;5046234;28;20067;-62
2022/02/18 09:29:31;;;;;;;6.05;3.13;;;10.20;92.10;;;;;;5041698;28;20106;-61
2022/02/18 09:32:03;;;;;;;10.30;3.70;;;10.30;92.20;;;;;;5044221;28;20032;-62
2022/02/18 09:34:29;;;;;;;10.82;5.50;;;10.30;92.00;;;;;;5049052;28;20045;-62
2022/02/18 09:36:54;;;;;;;13.32;3.72;;;10.40;92.00;;;;;;5027029;28;20020;-62
2022/02/18 09:39:21;;;;;;;10.27;4.18;;;10.50;91.90;;;;;;5062570;28;20119;-62
2022/02/18 09:41:47;;;;;;;8.90;3.45;;;10.50;91.80;;;;;;5072662;28;20078;-62
2022/02/18 09:44:14;;;;;;;8.80;3.50;;;10.60;91.70;;;;;;5059091;28;20033;-62
2022/02/18 09:46:40;;;;;;;10.93;3.88;;;10.60;91.50;;;;;;5052447;28;20029;-62
2022/02/18 09:49:08;;;;;;;8.20;3.38;;;10.60;91.40;;;;;;5053932;28;20037;-62
2022/02/18 09:51:34;;;;;;;8.73;3.30;;;10.70;91.30;;;;;;5054178;28;20020;-62
2022/02/18 09:54:00;;;;;;;7.38;3.65;;;10.80;91.20;;;;;;5040186;28;20034;-62
2022/02/18 09:56:25;;;;;;;8.88;3.15;;;10.80;91.40;;;;;;5040333;28;20070;-61
2022/02/18 09:58:56;;;;;;;13.05;3.53;;;10.80;91.30;;;;;;5041669;28;20061;-63
2022/02/18 10:01:22;;;;;;;7.10;2.78;;;10.80;91.20;;;;;;5039669;28;20101;-62
2022/02/18 10:03:48;;;;;;;12.82;3.95;;;10.90;91.20;;;;;;5052662;28;20033;-61
2022/02/18 10:06:13;;;;;;;4.75;2.65;;;10.90;91.10;;;;;;5050702;28;20025;-62
2022/02/18 10:08:49;;;;;;;5.85;2.83;;;11.00;91.00;;;;;;5057912;28;20029;-62
2022/02/18 10:11:16;;;;;;;10.48;3.55;;;11.00;90.90;;;;;;5043271;28;20040;-62
2022/02/18 10:13:45;;;;;;;8.27;3.10;;;11.10;91.00;;;;;;5054636;28;20051;-62
2022/02/18 10:16:22;;;;;;;6.15;2.60;;;11.10;90.90;;;;;;5053123;28;20029;-62
2022/02/18 10:18:56;;;;;;;11.70;3.75;;;11.20;90.70;;;;;;5058482;28;20029;-62
2022/02/18 10:21:35;;;;;;;6.03;2.45;;;11.10;90.80;;;;;;5060396;28;20029;-62
2022/02/18 10:24:09;;;;;;;10.30;2.38;;;11.10;90.80;;;;;;5055221;28;20037;-62
2022/02/18 10:26:38;;;;;;;6.55;2.63;;;11.20;90.70;;;;;;5041636;28;20024;-61
2022/02/18 10:29:08;;;;;;;6.95;2.47;;;11.20;90.60;;;;;;5040841;28;20102;-61
2022/02/18 10:31:34;;;;;;;11.73;2.83;;;11.20;90.60;;;;;;5049465;28;20036;-61
2022/02/18 10:34:08;;;;;;;6.18;2.50;;;11.30;90.50;;;;;;5039274;28;20030;-61
2022/02/18 10:36:44;;;;;;;7.35;2.75;;;11.30;90.50;;;;;;5029665;28;20091;-63
2022/02/18 10:39:26;;;;;;;8.27;2.72;;;11.30;90.40;;;;;;5028357;28;20434;-62
2022/02/18 10:41:57;;;;;;;7.28;2.65;;;11.40;90.50;;;;;;5050315;28;20033;-62
2022/02/18 10:44:34;;;;;;;6.32;2.40;;;11.40;90.50;;;;;;5049055;28;20361;-62
2022/02/18 10:47:05;;;;;;;7.30;3.17;;;11.40;90.40;;;;;;5050434;28;20472;-62
2022/02/18 10:49:34;;;;;;;6.10;2.53;;;11.50;90.40;;;;;;5051898;28;20436;-62
2022/02/18 10:52:03;;;;;;;8.65;2.63;;;11.50;90.30;;;;;;5050054;28;20031;-62
2022/02/18 10:54:35;;;;;;;8.07;3.30;;;11.50;90.20;;;;;;5050732;28;20067;-62
2022/02/18 10:57:19;;;;;;;5.97;2.58;;;11.50;90.10;;;;;;5046728;28;20071;-61
2022/02/18 10:59:46;;;;;;;6.43;2.80;;;11.60;90.10;;;;;;5045121;28;20392;-62
2022/02/18 11:02:12;;;;;;;7.20;2.88;;;11.50;90.10;;;;;;5061341;28;20060;-62
2022/02/18 11:04:37;;;;;;;9.45;3.10;;;11.60;90.00;;;;;;5051975;28;20041;-63
2022/02/18 11:07:14;;;;;;;7.80;2.90;;;11.50;90.00;;;;;;5044924;28;20083;-62
2022/02/18 11:09:41;;;;;;;8.90;3.05;;;11.50;90.00;;;;;;5045884;28;20423;-63
2022/02/18 11:12:11;;;;;;;9.32;2.90;;;11.50;90.00;;;;;;5059960;28;20487;-63
2022/02/18 11:14:40;;;;;;;12.95;3.50;;;11.50;90.00;;;;;;5043783;28;20032;-62
2022/02/18 11:17:06;;;;;;;9.18;3.33;;;11.50;90.00;;;;;;5059442;28;20441;-62
2022/02/18 11:19:31;;;;;;;7.07;2.80;;;11.50;90.00;;;;;;5052363;28;20036;-62
2022/02/18 11:21:58;;;;;;;5.90;3.10;;;11.50;90.00;;;;;;5051653;28;20025;-63
2022/02/18 11:24:24;;;;;;;9.38;2.85;;;11.50;90.00;;;;;;5044777;28;20078;-62
2022/02/18 11:26:51;;;;;;;6.07;2.60;;;11.50;89.90;;;;;;5060992;28;20473;-62
2022/02/18 11:29:19;;;;;;;4.00;2.08;;;11.50;90.00;;;;;;5042275;28;20052;-62
2022/02/18 11:31:50;;;;;;;4.05;1.80;;;11.40;90.00;;;;;;5040686;28;20060;-62
2022/02/18 11:34:42;;;;;;;6.55;2.17;;;11.30;90.10;;;;;;5037297;28;20033;-62
2022/02/18 11:37:31;;;;;;;6.03;2.25;;;11.20;90.40;;;;;;5037430;28;20028;-62
2022/02/18 11:40:26;;;;;;;5.05;2.30;;;11.10;90.60;;;;;;5036434;28;20544;-62
2022/02/18 11:43:03;;;;;;;7.10;2.47;;;11.00;90.90;;;;;;5029148;28;20504;-62
2022/02/18 11:45:30;;;;;;;10.02;3.33;;;10.90;91.10;;;;;;5041202;28;20499;-62
2022/02/18 11:47:55;;;;;;;10.05;3.30;;;10.90;91.40;;;;;;5040831;28;20029;-62
2022/02/18 11:50:27;;;;;;;4.65;2.28;;;10.80;91.60;;;;;;5061044;28;20036;-62
2022/02/18 11:52:53;;;;;;;7.07;2.20;;;10.70;91.90;;;;;;5013485;28;20041;-63
2022/02/18 11:55:34;;;;;;;6.40;2.78;;;10.70;92.10;;;;;;5054341;28;20389;-63
2022/02/18 11:58:14;;;;;;;9.88;2.50;;;10.60;92.20;;;;;;5055567;28;20523;-62
2022/02/18 12:00:50;;;;;;;6.05;2.70;;;10.50;92.50;;;;;;5020738;28;20085;-62
2022/02/18 12:03:24;;;;;;;7.85;2.83;;;10.50;92.80;;;;;;5015235;28;20080;-62
2022/02/18 12:06:07;;;;;;;7.83;2.60;;;10.40;92.80;;;;;;5027065;28;20026;-62
2022/02/18 12:08:35;;;;;;;7.00;3.13;;;10.40;92.90;;;;;;5032407;28;20713;-61
2022/02/18 12:11:07;;;;;;;6.53;2.60;;;10.30;93.00;;;;;;5020548;28;20038;-61
2022/02/18 12:14:05;;;;;;;6.20;2.78;;;10.30;93.00;;;;;;5017118;28;20392;-61
2022/02/18 12:16:31;;;;;;;9.10;3.17;;;10.30;93.10;;;;;;5021256;28;20036;-62
2022/02/18 12:19:08;;;;;;;5.90;2.88;;;10.30;93.30;;;;;;5030223;28;20033;-62
2022/02/18 12:21:53;;;;;;;8.55;2.97;;;10.30;93.30;;;;;;5026897;28;20033;-60
2022/02/18 12:24:30;;;;;;;5.28;2.60;;;10.30;93.20;;;;;;5020674;28;20026;-61
2022/02/18 12:27:24;;;;;;;5.40;2.40;;;10.30;93.20;;;;;;5023250;28;20040;-61
2022/02/18 12:29:54;;;;;;;7.28;2.17;;;10.20;93.20;;;;;;5026598;28;20056;-61
2022/02/18 12:32:20;;;;;;;5.35;2.35;;;10.30;93.20;;;;;;5031624;28;20025;-61
2022/02/18 12:35:03;;;;;;;5.63;2.35;;;10.30;93.20;;;;;;5029286;28;20074;-61
2022/02/18 12:37:29;;;;;;;7.60;2.70;;;10.20;93.20;;;;;;5018497;28;20036;-61
2022/02/18 12:39:56;;;;;;;5.72;2.30;;;10.20;93.30;;;;;;5023761;28;20030;-62
2022/02/18 12:42:26;;;;;;;5.85;2.25;;;10.30;93.20;;;;;;5027676;28;20025;-60
2022/02/18 12:44:53;;;;;;;6.03;2.67;;;10.30;93.30;;;;;;5028371;28;20500;-63
2022/02/18 12:47:19;;;;;;;6.45;2.20;;;10.30;93.20;;;;;;5036283;28;20099;-61
2022/02/18 12:49:45;;;;;;;7.13;2.45;;;10.40;93.20;;;;;;5025019;28;20045;-62
2022/02/18 12:52:11;;;;;;;6.55;2.50;;;10.40;93.20;;;;;;5031952;28;20421;-63
2022/02/18 12:54:47;;;;;;;8.52;2.60;;;10.40;93.10;;;;;;5016085;28;20032;-61